< Cyclone 199902 1999 Season Cyclone 199904 >
Cyclone 199903 (THELMA)
General InformationDetailed Track InformationTrack Information on Google MapsList of All Images || ResourceGoogle EarthGE AnimationAtom FeedGeoJSON
Detalied Best Track Wind (Time Zone = UTC)
Year Month Day Hour Lat. Long. Wind (kt) Gust (kt) Direc. of Major Storm Axis Radius of Major Storm Axis (nm) Radius of Minor Storm Axis (nm) Direc. of Major Gale Axis Radius of Major Gale Axis (nm) Radius of Minor Gale Axis (nm) Image
1998 11 30 23 -11.9 138.0 0 -1 symmetric - - symmetric - - Image
1998 12 1 05 -11.8 137.6 0 -1 symmetric - - symmetric - - Image
1998 12 1 11 -11.7 137.2 0 -1 symmetric - - symmetric - - Image
1998 12 1 17 -11.4 136.8 0 -1 symmetric - - symmetric - - Image
1998 12 1 23 -11.1 136.4 0 -1 symmetric - - symmetric - - Image
1998 12 2 05 -11.0 136.1 0 -1 symmetric - - symmetric - - Image
1998 12 2 11 -10.8 135.9 0 -1 symmetric - - symmetric - - Image
1998 12 2 17 -10.6 135.7 0 -1 symmetric - - symmetric - - Image
1998 12 2 23 -10.3 135.4 0 -1 symmetric - - symmetric - - Image
1998 12 3 05 -10.2 135.0 0 -1 symmetric - - symmetric - - Image
1998 12 3 11 -10.1 134.7 0 -1 symmetric - - symmetric - - Image
1998 12 3 17 -10.0 134.4 0 -1 symmetric - - symmetric - - Image
1998 12 3 23 -9.9 134.0 0 -1 symmetric - - symmetric - - Image
1998 12 4 05 -9.8 133.5 0 -1 symmetric - - symmetric - - Image
1998 12 4 11 -9.6 133.0 0 -1 symmetric - - symmetric - - Image
1998 12 4 17 -9.5 132.6 0 -1 symmetric - - symmetric - - Image
1998 12 4 23 -9.4 132.3 0 -1 symmetric - - symmetric - - Image
1998 12 5 05 -9.2 132.0 20 -1 symmetric - - symmetric - - Image
1998 12 5 08 -9.1 131.6 20 -1 symmetric - - symmetric - - Image
1998 12 5 11 -9.0 131.3 20 -1 symmetric - - symmetric - - Image
1998 12 5 14 -9.0 131.3 25 -1 symmetric - - symmetric - - Image
1998 12 5 17 -9.0 131.3 25 -1 symmetric - - symmetric - - Image
1998 12 5 20 -9.0 131.3 30 -1 symmetric - - symmetric - - Image
1998 12 5 23 -9.1 131.3 30 -1 symmetric - - symmetric - - Image
1998 12 6 02 -9.1 131.3 30 -1 symmetric - - symmetric - - Image
1998 12 6 05 -9.1 131.3 35 -1 symmetric - - symmetric - - Image
1998 12 6 08 -9.1 131.3 40 -1 symmetric - - symmetric - - Image
1998 12 6 11 -9.1 131.2 45 -1 symmetric - - symmetric - - Image
1998 12 6 14 -9.1 131.2 50 -1 symmetric - - symmetric - - Image
1998 12 6 17 -9.1 131.2 50 -1 symmetric - - symmetric - - Image
1998 12 6 20 -9.2 131.2 55 -1 symmetric - - symmetric - - Image
1998 12 6 23 -9.3 131.2 60 -1 symmetric - - symmetric - - Image
1998 12 7 02 -9.5 131.2 60 -1 symmetric - - symmetric - - Image
1998 12 7 05 -9.8 131.1 65 -1 symmetric - - symmetric - - Image
1998 12 7 08 -9.9 131.0 75 -1 symmetric - - symmetric - - Image
1998 12 7 11 -10.2 130.9 85 -1 symmetric - - symmetric - - Image
1998 12 7 14 -10.5 130.7 95 -1 symmetric - - symmetric - - Image
1998 12 7 17 -10.7 130.5 100 -1 symmetric - - symmetric - - Image
1998 12 7 20 -10.8 130.1 100 -1 symmetric - - symmetric - - Image
1998 12 7 23 -10.8 130.0 105 -1 symmetric - - symmetric - - Image
1998 12 8 02 -11.1 129.8 110 -1 symmetric - - symmetric - - Image
1998 12 8 05 -11.3 129.6 110 -1 symmetric - - symmetric - - Image
1998 12 8 08 -11.4 129.4 115 -1 symmetric - - symmetric - - Image
1998 12 8 11 -11.5 129.2 120 -1 symmetric - - symmetric - - Image
1998 12 8 14 -11.6 128.9 120 -1 symmetric - - symmetric - - Image
1998 12 8 17 -11.6 128.7 120 -1 symmetric - - symmetric - - Image
1998 12 8 20 -11.6 128.5 120 -1 symmetric - - symmetric - - Image
1998 12 8 23 -11.7 128.4 120 -1 symmetric - - symmetric - - Image
1998 12 9 02 -11.9 128.2 120 -1 symmetric - - symmetric - - Image
1998 12 9 05 -12.0 128.0 115 -1 symmetric - - symmetric - - Image
1998 12 9 08 -12.1 127.7 115 -1 symmetric - - symmetric - - Image
1998 12 9 11 -12.3 127.4 115 -1 symmetric - - symmetric - - Image
1998 12 9 14 -12.5 127.1 115 -1 symmetric - - symmetric - - Image
1998 12 9 17 -12.7 126.9 110 -1 symmetric - - symmetric - - Image
1998 12 9 20 -12.8 126.7 110 -1 symmetric - - symmetric - - Image
1998 12 9 23 -12.9 126.4 110 -1 symmetric - - symmetric - - Image
1998 12 10 02 -13.1 126.1 110 -1 symmetric - - symmetric - - Image
1998 12 10 05 -13.3 125.9 110 -1 symmetric - - symmetric - - Image
1998 12 10 08 -13.5 125.7 110 -1 symmetric - - symmetric - - Image
1998 12 10 11 -13.7 125.6 110 -1 symmetric - - symmetric - - Image
1998 12 10 14 -14.0 125.5 100 -1 symmetric - - symmetric - - Image
1998 12 10 17 -14.3 125.2 90 -1 symmetric - - symmetric - - Image
1998 12 10 20 -14.6 125.2 75 -1 symmetric - - symmetric - - Image
1998 12 10 23 -14.9 125.1 65 -1 symmetric - - symmetric - - Image
1998 12 11 02 -15.4 125.0 60 -1 symmetric - - symmetric - - Image
1998 12 11 05 -15.7 125.0 50 -1 symmetric - - symmetric - - Image
1998 12 11 08 -16.0 125.0 45 -1 symmetric - - symmetric - - Image
1998 12 11 11 -16.2 125.0 35 -1 symmetric - - symmetric - - Image
1998 12 11 14 -16.4 125.0 30 -1 symmetric - - symmetric - - Image
< Cyclone 199902 1999 Season Cyclone 199904 >

Help